createdAt,value
2022-08-05T00:00:29.761Z,58.23
2022-08-05T00:03:22.102Z,58.38
2022-08-05T00:06:20.189Z,58.54
2022-08-05T00:09:12.823Z,58.79
2022-08-05T00:11:59.860Z,58.95
2022-08-05T00:14:42.044Z,59.10
2022-08-05T00:17:24.041Z,59.06
2022-08-05T00:20:08.233Z,59.25
2022-08-05T00:22:59.607Z,59.10
2022-08-05T00:25:45.897Z,59.05
2022-08-05T00:28:29.652Z,59.15
2022-08-05T00:31:11.893Z,59.09
2022-08-05T00:34:56.731Z,59.06
2022-08-05T00:37:12.534Z,59.01
2022-08-05T00:39:57.816Z,59.25
2022-08-05T00:42:41.722Z,59.11
2022-08-05T00:45:28.210Z,59.20
2022-08-05T00:48:31.251Z,59.26
2022-08-05T00:51:50.789Z,59.42
2022-08-05T00:54:16.922Z,59.41
2022-08-05T00:56:59.125Z,59.40
2022-08-05T00:59:44.689Z,59.43
2022-08-05T01:02:27.423Z,59.70
2022-08-05T01:05:10.010Z,59.81
2022-08-05T01:08:40.847Z,59.71
2022-08-05T01:10:59.939Z,59.89
2022-08-05T01:13:59.081Z,59.94
2022-08-05T01:16:50.354Z,59.88
2022-08-05T01:20:01.723Z,59.71
2022-08-05T01:23:01.089Z,59.86
2022-08-05T01:26:26.990Z,59.97
2022-08-05T01:29:27.403Z,60.03
2022-08-05T01:32:19.846Z,59.94
2022-08-05T01:35:10.660Z,60.01
2022-08-05T01:37:58.119Z,60.07
2022-08-05T01:40:42.841Z,60.09
2022-08-05T01:43:28.177Z,60.14
2022-08-05T01:46:16.446Z,60.10
2022-08-05T01:49:24.167Z,60.11
2022-08-05T01:52:12.394Z,60.18
2022-08-05T01:55:04.444Z,60.39
2022-08-05T01:58:11.967Z,60.48
2022-08-05T02:00:54.651Z,60.53
2022-08-05T02:03:39.235Z,60.51
2022-08-05T02:06:37.258Z,60.73
2022-08-05T02:09:21.023Z,60.68
2022-08-05T02:12:17.255Z,60.82
2022-08-05T02:15:07.445Z,61.00
2022-08-05T02:18:32.172Z,61.12
2022-08-05T02:21:15.333Z,61.12
2022-08-05T02:24:04.745Z,61.22
2022-08-05T02:26:53.824Z,61.36
2022-08-05T02:29:59.569Z,61.48
2022-08-05T02:32:43.209Z,61.37
2022-08-05T02:35:28.186Z,61.66
2022-08-05T02:38:19.462Z,61.63
2022-08-05T02:41:14.761Z,61.70
2022-08-05T02:44:06.220Z,61.66
2022-08-05T02:46:59.995Z,61.88
2022-08-05T02:49:45.050Z,62.03
2022-08-05T02:52:30.476Z,62.15
2022-08-05T02:55:14.378Z,62.22
2022-08-05T02:58:12.161Z,62.30
2022-08-05T03:00:57.119Z,62.41
2022-08-05T03:04:02.666Z,62.36
2022-08-05T03:06:54.424Z,62.36
2022-08-05T03:09:43.990Z,62.30
2022-08-05T03:12:38.762Z,62.61
2022-08-05T03:15:23.436Z,62.74
2022-08-05T03:18:06.138Z,62.87
2022-08-05T03:20:49.673Z,63.01
2022-08-05T03:23:33.925Z,63.26
2022-08-05T03:26:31.353Z,63.34
2022-08-05T03:29:17.432Z,63.59
2022-08-05T03:32:00.773Z,63.71
2022-08-05T03:34:50.741Z,63.88
2022-08-05T03:37:44.776Z,63.78
2022-08-05T03:40:31.934Z,63.95
2022-08-05T03:43:58.579Z,63.96
2022-08-05T03:46:17.390Z,64.08
2022-08-05T03:49:01.774Z,64.10
2022-08-05T03:52:50.386Z,63.99
2022-08-05T03:56:05.164Z,63.79
2022-08-05T03:58:05.595Z,64.57
2022-08-05T04:00:51.563Z,64.24
2022-08-05T04:03:38.129Z,63.84
2022-08-05T04:06:20.604Z,63.52
2022-08-05T04:09:06.344Z,63.67
2022-08-05T04:11:52.649Z,63.45
2022-08-05T04:14:36.938Z,63.17
2022-08-05T04:17:19.551Z,63.00
2022-08-05T04:20:01.552Z,62.71
2022-08-05T04:22:44.570Z,62.34
2022-08-05T04:25:57.572Z,62.18
2022-08-05T04:28:30.927Z,62.23
2022-08-05T04:31:13.706Z,61.74
2022-08-05T04:34:31.175Z,61.75
2022-08-05T04:36:57.879Z,61.34
2022-08-05T04:39:40.091Z,61.29
2022-08-05T04:42:25.526Z,61.21
2022-08-05T04:45:08.223Z,60.89
2022-08-05T04:48:07.247Z,60.93
2022-08-05T04:51:02.593Z,60.49
2022-08-05T04:53:45.909Z,60.51
2022-08-05T04:56:34.946Z,60.58
2022-08-05T04:59:24.091Z,60.26
2022-08-05T05:02:41.956Z,60.20
2022-08-05T05:05:28.269Z,59.49
2022-08-05T05:08:14.354Z,59.38
2022-08-05T05:11:08.863Z,59.27
2022-08-05T05:13:50.760Z,59.02
2022-08-05T05:16:37.363Z,58.61
2022-08-05T05:19:26.662Z,58.09
2022-08-05T05:22:23.488Z,57.91
2022-08-05T05:25:16.481Z,56.88
2022-08-05T05:27:59.792Z,56.68
2022-08-05T05:30:41.662Z,55.98
2022-08-05T05:33:24.169Z,55.77
2022-08-05T05:36:06.271Z,55.44
2022-08-05T05:38:48.166Z,54.61
2022-08-05T05:41:40.335Z,54.48
2022-08-05T05:44:35.650Z,53.55
2022-08-05T05:47:21.473Z,53.37
2022-08-05T05:50:05.294Z,53.07
2022-08-05T05:52:48.364Z,53.34
2022-08-05T05:55:51.673Z,53.05
2022-08-05T05:58:34.685Z,52.48
2022-08-05T06:01:23.436Z,52.47
2022-08-05T06:04:12.203Z,51.23
2022-08-05T06:06:54.549Z,51.33
2022-08-05T06:10:01.599Z,51.00
2022-08-05T06:12:42.112Z,49.73
2022-08-05T06:15:24.521Z,49.84
2022-08-05T06:18:31.621Z,49.39
2022-08-05T06:21:18.480Z,48.82
2022-08-05T06:24:01.892Z,48.87
2022-08-05T06:26:52.319Z,48.09
2022-08-05T06:29:49.610Z,47.77
2022-08-05T06:32:38.502Z,47.53
2022-08-05T06:36:07.066Z,46.87
2022-08-05T06:38:36.223Z,46.34
2022-08-05T06:41:19.108Z,46.72
2022-08-05T06:44:04.690Z,46.22
2022-08-05T06:46:47.611Z,45.62
2022-08-05T06:50:00.807Z,46.02
2022-08-05T06:52:37.174Z,45.44
2022-08-05T06:55:20.536Z,44.94
2022-08-05T06:58:29.238Z,43.52
2022-08-05T07:01:07.365Z,43.06
2022-08-05T07:03:49.469Z,43.54
2022-08-05T07:06:32.173Z,42.77
2022-08-05T07:09:14.181Z,42.43
2022-08-05T07:12:00.587Z,42.14
2022-08-05T07:15:01.369Z,41.69
2022-08-05T07:17:59.113Z,41.77
2022-08-05T07:20:44.826Z,41.25
2022-08-05T07:23:29.497Z,41.42
2022-08-05T07:26:13.976Z,40.67
2022-08-05T07:28:56.912Z,39.70
2022-08-05T07:31:54.590Z,40.42
2022-08-05T07:34:41.830Z,39.23
2022-08-05T07:37:24.517Z,39.36
2022-08-05T07:40:32.251Z,39.42
2022-08-05T07:43:20.855Z,39.26
2022-08-05T07:46:03.174Z,38.15
2022-08-05T07:49:02.439Z,37.91
2022-08-05T07:51:53.064Z,38.40
2022-08-05T07:54:41.189Z,37.81
2022-08-05T07:57:56.339Z,36.64
2022-08-05T08:00:31.644Z,36.69
2022-08-05T08:03:15.960Z,37.70
2022-08-05T08:05:57.987Z,37.16
2022-08-05T08:08:41.009Z,37.29
2022-08-05T08:11:27.820Z,37.16
2022-08-05T08:14:24.767Z,36.05
2022-08-05T08:17:10.964Z,35.78
2022-08-05T08:20:22.067Z,35.42
2022-08-05T08:23:03.150Z,35.52
2022-08-05T08:26:00.015Z,35.45
2022-08-05T08:28:59.429Z,35.17
2022-08-05T08:31:44.136Z,35.21
2022-08-05T08:34:30.147Z,34.11
2022-08-05T08:37:13.049Z,35.04
2022-08-05T08:40:01.141Z,34.50
2022-08-05T08:42:52.804Z,33.56
2022-08-05T08:45:37.586Z,34.37
2022-08-05T08:48:41.309Z,34.31
2022-08-05T08:52:04.359Z,33.83
2022-08-05T08:54:27.708Z,33.66
2022-08-05T08:57:11.407Z,33.09
2022-08-05T08:59:56.414Z,33.64
2022-08-05T09:02:40.869Z,33.10
2022-08-05T09:05:38.407Z,33.67
2022-08-05T09:08:26.636Z,32.78
2022-08-05T09:11:13.583Z,32.86
2022-08-05T09:14:09.886Z,32.84
2022-08-05T09:17:00.640Z,32.95
2022-08-05T09:20:01.864Z,33.49
2022-08-05T09:23:05.361Z,33.55
2022-08-05T09:26:02.518Z,33.08
2022-08-05T09:28:47.811Z,33.00
2022-08-05T09:32:51.103Z,33.66
2022-08-05T09:34:56.245Z,32.81
2022-08-05T09:38:12.237Z,33.14
2022-08-05T09:40:51.996Z,32.52
2022-08-05T09:43:41.746Z,32.34
2022-08-05T09:46:32.595Z,32.30
2022-08-05T09:49:54.478Z,32.09
2022-08-05T09:52:36.650Z,31.41
2022-08-05T09:55:57.837Z,32.18
2022-08-05T09:58:29.478Z,32.01
2022-08-05T10:01:22.662Z,32.36
2022-08-05T10:04:15.925Z,32.33
2022-08-05T10:06:59.462Z,32.63
2022-08-05T10:10:04.421Z,31.22
2022-08-05T10:13:01.217Z,31.05
2022-08-05T10:15:44.549Z,32.35
2022-08-05T10:18:33.513Z,31.19
2022-08-05T10:21:16.467Z,31.71
2022-08-05T10:24:00.655Z,32.51
2022-08-05T10:26:51.482Z,31.86
2022-08-05T10:30:41.155Z,32.09
2022-08-05T10:32:54.224Z,32.38
2022-08-05T10:35:44.114Z,33.04
2022-08-05T10:38:29.755Z,32.55
2022-08-05T10:41:46.419Z,32.26
2022-08-05T10:44:31.595Z,32.41
2022-08-05T10:47:26.938Z,32.51
2022-08-05T10:50:32.527Z,33.06
2022-08-05T10:53:51.363Z,32.53
2022-08-05T10:56:45.359Z,33.36
2022-08-05T11:00:04.429Z,32.83
2022-08-05T11:02:38.626Z,33.07
2022-08-05T11:05:29.116Z,32.42
2022-08-05T11:08:36.699Z,32.32
2022-08-05T11:11:44.813Z,31.68
2022-08-05T11:17:57.171Z,33.09
2022-08-05T11:20:48.361Z,32.33
2022-08-05T11:24:02.847Z,31.35
2022-08-05T11:26:43.202Z,30.80
2022-08-05T11:29:41.064Z,31.21
2022-08-05T11:32:28.186Z,31.10
2022-08-05T11:36:07.697Z,31.15
2022-08-05T11:38:57.812Z,30.97
2022-08-05T11:42:01.995Z,30.28
2022-08-05T11:44:53.236Z,29.31
2022-08-05T11:47:48.611Z,29.79
2022-08-05T11:50:38.651Z,30.28
2022-08-05T11:53:22.388Z,30.48
2022-08-05T11:56:04.489Z,30.43
2022-08-05T11:58:52.819Z,30.54
2022-08-05T12:01:35.878Z,30.47
2022-08-05T12:04:21.075Z,30.35
2022-08-05T12:07:09.488Z,30.65
2022-08-05T12:09:54.997Z,29.89
2022-08-05T12:12:38.288Z,30.29
2022-08-05T12:15:44.657Z,29.02
2022-08-05T12:18:38.965Z,29.55
2022-08-05T12:21:33.025Z,29.45
2022-08-05T12:24:21.680Z,29.71
2022-08-05T12:27:09.811Z,29.63
2022-08-05T12:30:09.468Z,29.51
2022-08-05T12:33:07.529Z,29.04
2022-08-05T12:36:02.680Z,29.57
2022-08-05T12:38:44.815Z,28.77
2022-08-05T12:41:35.685Z,28.46
2022-08-05T12:44:33.122Z,28.71
2022-08-05T12:47:31.174Z,28.10
2022-08-05T12:50:15.409Z,28.20
2022-08-05T12:53:00.199Z,28.34
2022-08-05T12:55:42.552Z,28.40
2022-08-05T12:58:52.342Z,29.14
2022-08-05T13:02:01.241Z,29.00
2022-08-05T13:04:41.759Z,29.19
2022-08-05T13:08:00.204Z,29.03
2022-08-05T13:10:50.170Z,29.11
2022-08-05T13:14:05.601Z,29.51
2022-08-05T13:16:48.047Z,28.91
2022-08-05T13:19:50.946Z,28.79
2022-08-05T13:22:34.717Z,27.90
2022-08-05T13:25:21.959Z,28.02
2022-08-05T13:28:05.297Z,28.08
2022-08-05T13:30:48.390Z,28.26
2022-08-05T13:34:23.461Z,28.21
2022-08-05T13:36:33.555Z,28.09
2022-08-05T13:39:24.613Z,27.61
2022-08-05T13:42:17.608Z,27.63
2022-08-05T13:45:01.041Z,27.50
2022-08-05T13:48:08.597Z,27.59
2022-08-05T13:50:45.004Z,26.80
2022-08-05T13:53:29.458Z,26.54
2022-08-05T13:56:18.799Z,26.12
2022-08-05T13:59:05.955Z,26.46
2022-08-05T14:02:03.205Z,26.02
2022-08-05T14:05:05.785Z,25.86
2022-08-05T14:08:03.015Z,25.45
2022-08-05T14:10:50.618Z,25.77
2022-08-05T14:13:32.567Z,25.55
2022-08-05T14:16:16.624Z,25.56
2022-08-05T14:19:04.605Z,26.27
2022-08-05T14:22:10.245Z,26.20
2022-08-05T14:24:49.127Z,26.03
2022-08-05T14:27:32.253Z,25.90
2022-08-05T14:30:20.190Z,25.65
2022-08-05T14:33:04.955Z,26.25
2022-08-05T14:35:51.927Z,25.75
2022-08-05T14:38:36.250Z,25.63
2022-08-05T14:41:18.692Z,26.22
2022-08-05T14:44:09.743Z,26.40
2022-08-05T14:47:03.008Z,26.51
2022-08-05T14:49:56.484Z,26.45
2022-08-05T14:52:52.388Z,26.50
2022-08-05T14:55:39.429Z,26.46
2022-08-05T14:58:22.739Z,26.33
2022-08-05T15:01:05.456Z,26.19
2022-08-05T15:03:58.511Z,26.51
2022-08-05T15:06:40.626Z,26.32
2022-08-05T15:09:51.841Z,26.16
2022-08-05T15:12:24.728Z,25.64
2022-08-05T15:15:13.641Z,25.35
2022-08-05T15:17:57.380Z,26.02
2022-08-05T15:20:45.995Z,26.06
2022-08-05T15:23:28.031Z,26.66
2022-08-05T15:26:10.439Z,26.48
2022-08-05T15:28:52.846Z,26.56
2022-08-05T15:31:35.169Z,26.74
2022-08-05T15:34:31.653Z,26.60
2022-08-05T15:37:19.365Z,26.16
2022-08-05T15:41:00.017Z,26.43
2022-08-05T15:43:21.298Z,26.69
2022-08-05T15:46:03.819Z,26.62
2022-08-05T15:48:53.083Z,26.95
2022-08-05T15:52:09.706Z,27.36
2022-08-05T15:54:45.859Z,26.99
2022-08-05T15:57:34.708Z,26.85
2022-08-05T16:00:32.691Z,27.09
2022-08-05T16:03:20.322Z,27.38
2022-08-05T16:06:02.881Z,28.04
2022-08-05T16:08:46.570Z,27.84
2022-08-05T16:11:42.825Z,28.52
2022-08-05T16:14:25.516Z,28.52
2022-08-05T16:17:07.631Z,28.61
2022-08-05T16:20:04.959Z,28.54
2022-08-05T16:22:49.751Z,28.91
2022-08-05T16:25:34.023Z,30.07
2022-08-05T16:28:16.908Z,30.82
2022-08-05T16:30:59.290Z,32.08
2022-08-05T16:33:42.007Z,32.97
2022-08-05T16:36:24.438Z,33.93
2022-08-05T16:39:09.688Z,34.38
2022-08-05T16:42:14.938Z,34.78
2022-08-05T16:44:59.617Z,35.11
2022-08-05T16:47:53.454Z,35.01
2022-08-05T16:50:38.465Z,35.34
2022-08-05T16:53:32.140Z,35.78
2022-08-05T16:56:14.754Z,36.38
2022-08-05T16:58:57.870Z,36.88
2022-08-05T17:01:58.104Z,37.27
2022-08-05T17:04:42.347Z,37.75
2022-08-05T17:07:39.199Z,38.19
2022-08-05T17:10:26.455Z,38.74
2022-08-05T17:13:16.923Z,39.11
2022-08-05T17:16:26.455Z,39.73
2022-08-05T17:19:02.310Z,39.89
2022-08-05T17:21:51.478Z,39.73
2022-08-05T17:24:38.738Z,39.62
2022-08-05T17:27:24.587Z,39.82
2022-08-05T17:30:18.721Z,40.50
2022-08-05T17:33:10.135Z,41.50
2022-08-05T17:36:08.453Z,41.57
2022-08-05T17:38:52.122Z,42.67
2022-08-05T17:42:18.861Z,42.91
2022-08-05T17:44:36.377Z,42.74
2022-08-05T17:47:22.295Z,42.24
2022-08-05T17:50:10.614Z,42.09
2022-08-05T17:52:55.049Z,42.22
2022-08-05T17:55:40.056Z,42.82
2022-08-05T17:58:32.532Z,43.15
2022-08-05T18:01:15.110Z,43.83
2022-08-05T18:04:03.752Z,44.48
2022-08-05T18:06:46.768Z,45.04
2022-08-05T18:09:59.881Z,45.55
2022-08-05T18:12:34.931Z,46.15
2022-08-05T18:15:17.032Z,46.65
2022-08-05T18:18:03.563Z,46.97
2022-08-05T18:20:48.092Z,47.45
2022-08-05T18:23:45.827Z,47.85
2022-08-05T18:26:32.143Z,48.18
2022-08-05T18:29:15.181Z,48.57
2022-08-05T18:31:58.921Z,48.69
2022-08-05T18:34:42.913Z,49.28
2022-08-05T18:37:34.278Z,49.51
2022-08-05T18:40:31.766Z,49.80
2022-08-05T18:43:24.700Z,50.15
2022-08-05T18:46:13.496Z,50.30
2022-08-05T18:48:55.867Z,50.68
2022-08-05T18:52:06.598Z,51.06
2022-08-05T18:54:50.500Z,51.71
2022-08-05T18:57:50.147Z,52.53
2022-08-05T19:00:35.567Z,53.23
2022-08-05T19:03:18.487Z,53.48
2022-08-05T19:06:21.705Z,53.99
2022-08-05T19:09:04.502Z,54.40
2022-08-05T19:12:00.346Z,54.53
2022-08-05T19:15:00.899Z,54.93
2022-08-05T19:17:59.445Z,55.74
2022-08-05T19:20:50.282Z,56.16
2022-08-05T19:24:06.211Z,56.37
2022-08-05T19:26:54.702Z,56.60
2022-08-05T19:29:38.982Z,56.99
2022-08-05T19:32:22.354Z,57.12
2022-08-05T19:35:09.910Z,57.20
2022-08-05T19:38:06.289Z,57.42
2022-08-05T19:40:50.631Z,57.49
2022-08-05T19:44:06.192Z,57.66
2022-08-05T19:46:39.248Z,57.79
2022-08-05T19:49:23.399Z,59.73
2022-08-05T19:52:30.717Z,61.19
2022-08-05T19:56:14.578Z,61.67
2022-08-05T19:58:29.401Z,62.35
2022-08-05T20:01:13.791Z,62.73
2022-08-05T20:03:56.278Z,62.97
2022-08-05T20:06:45.863Z,63.33
2022-08-05T20:09:28.978Z,63.61
2022-08-05T20:12:31.867Z,63.78
2022-08-05T20:15:14.991Z,63.79
2022-08-05T20:18:09.772Z,64.52
2022-08-05T20:20:55.360Z,65.56
2022-08-05T20:23:51.199Z,66.02
2022-08-05T20:26:36.697Z,66.54
2022-08-05T20:29:27.494Z,66.64
2022-08-05T20:32:10.321Z,67.88
2022-08-05T20:34:55.322Z,68.08
2022-08-05T20:38:05.759Z,68.93
2022-08-05T20:40:39.637Z,69.22
2022-08-05T20:43:57.901Z,69.90
2022-08-05T20:46:27.291Z,69.98
2022-08-05T20:49:09.287Z,70.46
2022-08-05T20:51:57.534Z,70.63
2022-08-05T20:54:43.610Z,71.16
2022-08-05T20:57:44.241Z,71.30
2022-08-05T21:00:51.862Z,71.39
2022-08-05T21:03:28.735Z,71.57
2022-08-05T21:06:28.792Z,72.07
2022-08-05T21:09:11.576Z,72.54
2022-08-05T21:12:09.121Z,72.55
2022-08-05T21:14:58.044Z,72.50
2022-08-05T21:17:40.712Z,72.37
2022-08-05T21:20:33.537Z,72.89
2022-08-05T21:23:16.791Z,73.18
2022-08-05T21:25:59.406Z,73.15
2022-08-05T21:28:48.020Z,73.33
2022-08-05T21:31:41.579Z,73.57
2022-08-05T21:34:23.832Z,73.73
2022-08-05T21:37:08.334Z,74.30
2022-08-05T21:39:52.739Z,74.27
2022-08-05T21:42:44.196Z,74.25
2022-08-05T21:45:56.607Z,74.38
2022-08-05T21:48:35.362Z,74.64
2022-08-05T21:52:16.727Z,74.69
2022-08-05T21:54:30.858Z,74.38
2022-08-05T21:57:31.456Z,74.75
2022-08-05T22:00:14.845Z,74.88
2022-08-05T22:02:56.793Z,75.05
2022-08-05T22:05:48.811Z,75.15
2022-08-05T22:08:31.233Z,75.27
2022-08-05T22:11:15.658Z,75.44
2022-08-05T22:14:06.507Z,75.47
2022-08-05T22:17:04.845Z,75.54
2022-08-05T22:20:00.579Z,75.80
2022-08-05T22:23:16.972Z,75.87
2022-08-05T22:26:22.552Z,75.73
2022-08-05T22:29:06.966Z,76.03
2022-08-05T22:31:55.346Z,76.17
2022-08-05T22:34:41.550Z,76.37
2022-08-05T22:37:23.494Z,76.51
2022-08-05T22:40:25.514Z,76.74
2022-08-05T22:43:07.354Z,76.78
2022-08-05T22:45:50.741Z,77.01
2022-08-05T22:48:33.097Z,77.18
2022-08-05T22:51:23.216Z,77.30
2022-08-05T22:54:19.216Z,77.61
2022-08-05T22:57:06.998Z,77.77
2022-08-05T22:59:54.165Z,77.87
2022-08-05T23:02:40.044Z,77.82
2022-08-05T23:05:29.012Z,77.68
2022-08-05T23:08:17.926Z,77.82
2022-08-05T23:10:59.766Z,78.25
2022-08-05T23:13:42.433Z,78.46
2022-08-05T23:16:44.297Z,78.58
2022-08-05T23:19:38.475Z,78.56
2022-08-05T23:22:28.876Z,78.55
2022-08-05T23:25:11.373Z,78.56
2022-08-05T23:28:00.335Z,78.52
2022-08-05T23:30:43.891Z,78.63
2022-08-05T23:34:04.794Z,78.69
2022-08-05T23:36:39.744Z,78.72
2022-08-05T23:39:32.521Z,78.77
2022-08-05T23:42:29.365Z,78.80
2022-08-05T23:45:13.890Z,79.20
2022-08-05T23:47:59.499Z,79.32
2022-08-05T23:50:46.580Z,79.38
2022-08-05T23:53:46.402Z,79.63
2022-08-05T23:56:29.110Z,79.81
2022-08-05T23:59:11.211Z,79.88
